Time;durP1;ratioP1;P1;durP2;ratioP2;P2;SDS_P1;SDS_P2;PMS_P1;PMS_P2;Temp;Humidity;BMP_temperature;BMP_pressure;BME280_temperature;BME280_humidity;BME280_pressure;Samples;Min_cycle;Max_cycle;Signal;HPM_P1;HPM_P2
2020/12/31 00:02:09;;;;;;;11.82;8.07;;;11.40;83.20;;;;;;5028027;28;20029;-64
2020/12/31 00:04:35;;;;;;;12.30;8.35;;;11.40;83.30;;;;;;5032744;28;20079;-64
2020/12/31 00:07:01;;;;;;;11.73;9.07;;;11.40;83.10;;;;;;5032696;28;20064;-64
2020/12/31 00:09:27;;;;;;;11.90;8.20;;;11.40;83.70;;;;;;5032473;28;20017;-64
2020/12/31 00:11:52;;;;;;;10.82;7.95;;;11.40;82.90;;;;;;5032901;28;20044;-64
2020/12/31 00:14:18;;;;;;;12.43;9.25;;;11.40;83.00;;;;;;5033789;28;20365;-64
2020/12/31 00:16:44;;;;;;;13.93;8.93;;;11.40;82.90;;;;;;5036854;28;20048;-64
2020/12/31 00:19:09;;;;;;;13.55;8.57;;;11.40;82.70;;;;;;5035302;28;20134;-64
2020/12/31 00:21:35;;;;;;;13.20;8.18;;;11.50;82.80;;;;;;5036410;28;20017;-64
2020/12/31 00:24:01;;;;;;;10.65;7.75;;;11.50;82.60;;;;;;5021903;28;20021;-64
2020/12/31 00:26:26;;;;;;;12.88;8.82;;;11.40;82.40;;;;;;5035799;28;20452;-64
2020/12/31 00:28:52;;;;;;;12.02;8.30;;;11.40;82.20;;;;;;5022809;28;20128;-64
2020/12/31 00:31:18;;;;;;;13.00;8.32;;;11.40;82.40;;;;;;5035353;28;20017;-64
2020/12/31 00:33:43;;;;;;;11.32;8.35;;;11.40;82.30;;;;;;5035693;28;20100;-64
2020/12/31 00:36:09;;;;;;;12.85;8.70;;;11.40;82.00;;;;;;5024401;28;20109;-64
2020/12/31 00:38:35;;;;;;;15.50;9.35;;;11.40;81.90;;;;;;5015528;28;20041;-64
2020/12/31 00:41:01;;;;;;;13.95;8.55;;;11.40;82.60;;;;;;5029018;28;20057;-64
2020/12/31 00:43:28;;;;;;;13.30;8.52;;;11.30;81.60;;;;;;5035606;28;20472;-64
2020/12/31 00:45:54;;;;;;;11.80;8.55;;;11.30;81.70;;;;;;5035969;28;20023;-64
2020/12/31 00:48:20;;;;;;;11.43;8.02;;;11.30;81.60;;;;;;5035118;28;20106;-64
2020/12/31 00:50:45;;;;;;;11.80;7.85;;;11.30;81.70;;;;;;5021852;28;20477;-64
2020/12/31 00:53:11;;;;;;;12.25;8.68;;;11.20;81.80;;;;;;5024159;28;20359;-64
2020/12/31 00:55:37;;;;;;;13.15;7.68;;;11.20;81.60;;;;;;5033274;28;20021;-64
2020/12/31 00:58:03;;;;;;;11.85;8.32;;;11.10;81.50;;;;;;5025829;28;20026;-64
2020/12/31 01:00:29;;;;;;;11.27;8.13;;;11.10;81.60;;;;;;5031572;28;20022;-64
2020/12/31 01:02:55;;;;;;;11.27;8.15;;;11.00;81.60;;;;;;5036006;28;20034;-64
2020/12/31 01:05:21;;;;;;;12.45;8.65;;;11.00;81.50;;;;;;5021303;28;20355;-64
2020/12/31 01:07:47;;;;;;;12.52;8.73;;;11.00;81.60;;;;;;5026718;28;20038;-64
2020/12/31 01:10:12;;;;;;;11.75;8.18;;;10.90;81.60;;;;;;5031377;28;20018;-64
2020/12/31 01:12:38;;;;;;;10.35;7.88;;;10.90;81.70;;;;;;5035028;28;20056;-64
2020/12/31 01:15:05;;;;;;;13.50;8.95;;;10.90;81.40;;;;;;5035933;28;20424;-64
2020/12/31 01:17:31;;;;;;;10.57;7.43;;;10.90;81.50;;;;;;5021475;28;20033;-64
2020/12/31 01:19:57;;;;;;;11.70;7.82;;;10.80;81.40;;;;;;5024633;28;20025;-64
2020/12/31 01:22:22;;;;;;;10.43;8.50;;;10.80;81.40;;;;;;5035631;28;20070;-64
2020/12/31 01:24:51;;;;;;;11.38;8.48;;;10.70;81.40;;;;;;5035173;28;20465;-64
2020/12/31 01:27:17;;;;;;;12.70;7.78;;;10.70;81.50;;;;;;5035445;28;20053;-64
2020/12/31 01:29:43;;;;;;;12.65;8.10;;;10.70;81.70;;;;;;5029641;28;20465;-64
2020/12/31 01:32:09;;;;;;;13.60;8.75;;;10.60;81.40;;;;;;5026854;28;20028;-64
2020/12/31 01:34:35;;;;;;;12.85;9.13;;;10.60;82.20;;;;;;5035533;28;20021;-64
2020/12/31 01:37:01;;;;;;;12.75;9.00;;;10.60;81.70;;;;;;5020599;28;20068;-64
2020/12/31 01:39:27;;;;;;;13.27;8.10;;;10.50;81.60;;;;;;5035078;28;20747;-64
2020/12/31 01:41:53;;;;;;;11.43;7.70;;;10.50;81.60;;;;;;5031877;28;20029;-64
2020/12/31 01:44:18;;;;;;;11.13;7.75;;;10.50;81.40;;;;;;5034907;28;20029;-64
2020/12/31 01:46:47;;;;;;;14.02;8.50;;;10.40;81.20;;;;;;5022095;28;20032;-64
2020/12/31 01:49:18;;;;;;;11.77;7.65;;;10.40;81.50;;;;;;5033065;28;20105;-64
2020/12/31 01:51:45;;;;;;;14.20;8.40;;;10.40;81.60;;;;;;5035282;28;20025;-64
2020/12/31 01:54:13;;;;;;;11.75;8.68;;;10.30;81.40;;;;;;5033798;28;20025;-64
2020/12/31 01:56:41;;;;;;;10.65;7.80;;;10.30;81.30;;;;;;5034786;28;20068;-64
2020/12/31 01:59:07;;;;;;;14.90;8.52;;;10.20;81.40;;;;;;5034049;28;20373;-64
2020/12/31 02:01:33;;;;;;;16.33;8.55;;;10.20;81.60;;;;;;5021268;28;20033;-64
2020/12/31 02:03:59;;;;;;;12.70;8.35;;;10.10;81.40;;;;;;5027598;28;20025;-64
2020/12/31 02:06:27;;;;;;;12.30;7.93;;;10.00;81.60;;;;;;5021548;28;20021;-64
2020/12/31 02:08:53;;;;;;;12.32;8.65;;;10.00;81.70;;;;;;5035013;28;20045;-64
2020/12/31 02:11:20;;;;;;;14.13;8.80;;;10.00;81.90;;;;;;5034620;28;20028;-64
2020/12/31 02:13:47;;;;;;;13.77;8.82;;;10.00;81.90;;;;;;5035493;28;20363;-64
2020/12/31 02:16:14;;;;;;;11.88;8.55;;;10.00;82.00;;;;;;5031518;28;20026;-64
2020/12/31 02:19:11;;;;;;;12.88;8.82;;;10.00;82.00;;;;;;5024206;28;20044;-64
2020/12/31 02:21:41;;;;;;;12.48;8.10;;;10.00;82.00;;;;;;5022955;28;20041;-64
2020/12/31 02:24:07;;;;;;;13.65;8.20;;;10.00;81.80;;;;;;5035286;28;20025;-64
2020/12/31 02:26:36;;;;;;;12.45;8.10;;;10.00;81.80;;;;;;5034727;28;20053;-64
2020/12/31 02:29:04;;;;;;;13.10;8.07;;;10.00;81.80;;;;;;5033784;28;20083;-64
2020/12/31 02:31:30;;;;;;;15.07;8.73;;;9.90;81.90;;;;;;5034259;28;20482;-64
2020/12/31 02:33:56;;;;;;;11.80;8.02;;;9.90;81.80;;;;;;5034504;28;20028;-64
2020/12/31 02:36:24;;;;;;;10.50;7.82;;;9.90;81.80;;;;;;5033845;28;20021;-64
2020/12/31 02:38:51;;;;;;;12.75;8.18;;;9.90;81.60;;;;;;5033979;28;20067;-64
2020/12/31 02:41:16;;;;;;;11.45;8.27;;;9.90;81.60;;;;;;5034715;28;20030;-64
2020/12/31 02:43:43;;;;;;;10.10;7.20;;;9.90;81.70;;;;;;5033874;28;20059;-64
2020/12/31 02:46:12;;;;;;;11.00;7.45;;;9.80;81.50;;;;;;5034211;28;20049;-64
2020/12/31 02:48:39;;;;;;;10.75;7.03;;;9.80;81.60;;;;;;5033704;28;20025;-64
2020/12/31 02:51:05;;;;;;;10.85;7.07;;;9.80;82.00;;;;;;5032190;28;20026;-64
2020/12/31 02:53:31;;;;;;;12.93;8.48;;;9.80;81.70;;;;;;5031127;28;20032;-64
2020/12/31 02:55:57;;;;;;;13.18;8.20;;;9.80;81.70;;;;;;5027815;28;20026;-64
2020/12/31 02:58:23;;;;;;;11.70;7.68;;;9.70;81.70;;;;;;5026566;28;20466;-64
2020/12/31 03:00:49;;;;;;;11.10;8.05;;;9.70;82.20;;;;;;5025588;28;20432;-64
2020/12/31 03:03:15;;;;;;;10.85;8.30;;;9.70;81.60;;;;;;5019394;28;20492;-64
2020/12/31 03:05:41;;;;;;;12.13;8.00;;;9.60;81.60;;;;;;5024512;28;20026;-64
2020/12/31 03:08:06;;;;;;;13.75;9.55;;;9.60;81.70;;;;;;5027493;28;20479;-64
2020/12/31 03:10:32;;;;;;;11.98;8.10;;;9.60;81.70;;;;;;5028256;28;20079;-64
2020/12/31 03:12:58;;;;;;;12.18;8.05;;;9.60;81.70;;;;;;5033205;28;20032;-64
2020/12/31 03:15:24;;;;;;;15.60;8.98;;;9.60;81.60;;;;;;5023082;28;20052;-64
2020/12/31 03:17:50;;;;;;;12.45;8.20;;;9.50;81.50;;;;;;5024446;28;20033;-64
2020/12/31 03:20:16;;;;;;;11.90;8.48;;;9.50;81.80;;;;;;5031087;28;20483;-64
2020/12/31 03:22:42;;;;;;;10.73;7.72;;;9.50;82.00;;;;;;5033464;28;20026;-64
2020/12/31 03:25:08;;;;;;;13.88;8.48;;;9.40;82.00;;;;;;5032515;28;20028;-64
2020/12/31 03:27:34;;;;;;;14.20;9.38;;;9.40;82.10;;;;;;5019771;28;20042;-64
2020/12/31 03:30:00;;;;;;;14.23;9.27;;;9.50;82.30;;;;;;5029616;28;20386;-64
2020/12/31 03:32:26;;;;;;;12.98;9.10;;;9.50;82.10;;;;;;5013308;28;20454;-64
2020/12/31 03:34:51;;;;;;;12.50;9.13;;;9.50;82.00;;;;;;5028708;28;20079;-64
2020/12/31 03:37:17;;;;;;;12.77;8.55;;;9.40;81.90;;;;;;5025752;28;20025;-64
2020/12/31 03:39:43;;;;;;;13.20;8.65;;;9.40;82.00;;;;;;5026696;28;20080;-64
2020/12/31 03:42:09;;;;;;;12.10;8.40;;;9.40;82.00;;;;;;5032953;28;20022;-64
2020/12/31 03:44:35;;;;;;;13.77;8.90;;;9.40;81.90;;;;;;5033103;28;20146;-64
2020/12/31 03:47:01;;;;;;;11.80;8.30;;;9.40;81.80;;;;;;5032434;28;20030;-64
2020/12/31 03:49:27;;;;;;;11.38;8.00;;;9.40;81.80;;;;;;5025517;28;20038;-64
2020/12/31 03:51:52;;;;;;;14.80;9.00;;;9.30;81.70;;;;;;5030746;28;20211;-64
2020/12/31 03:54:18;;;;;;;12.15;8.85;;;9.30;81.80;;;;;;5024631;28;20022;-64
2020/12/31 03:56:44;;;;;;;15.60;8.77;;;9.30;81.80;;;;;;5036905;28;20029;-64
2020/12/31 03:59:10;;;;;;;12.38;8.07;;;9.20;82.50;;;;;;5030844;28;20033;-64
2020/12/31 04:01:36;;;;;;;11.75;8.05;;;9.20;81.80;;;;;;5017115;28;20046;-64
2020/12/31 04:04:02;;;;;;;12.85;8.30;;;9.20;81.80;;;;;;5028340;28;20032;-64
2020/12/31 04:06:28;;;;;;;12.60;7.93;;;9.10;81.70;;;;;;5036194;28;20097;-64
2020/12/31 04:08:55;;;;;;;10.80;8.07;;;9.10;81.70;;;;;;5036873;28;20456;-64
2020/12/31 04:11:21;;;;;;;12.82;8.65;;;9.00;81.00;;;;;;5033873;28;20450;-64
2020/12/31 04:13:46;;;;;;;14.10;8.48;;;8.90;80.60;;;;;;5016736;28;20033;-64
2020/12/31 04:16:13;;;;;;;12.88;8.50;;;8.80;80.90;;;;;;5029910;28;20025;-65
2020/12/31 04:18:38;;;;;;;12.95;9.52;;;8.60;80.80;;;;;;5016548;28;20013;-64
2020/12/31 04:21:04;;;;;;;13.88;9.45;;;8.50;80.90;;;;;;5021904;28;20030;-64
2020/12/31 04:23:30;;;;;;;12.20;8.65;;;8.40;81.60;;;;;;5020316;28;20060;-64
2020/12/31 04:25:56;;;;;;;13.90;9.05;;;8.30;82.00;;;;;;5036019;28;20040;-64
2020/12/31 04:28:22;;;;;;;12.65;8.43;;;8.30;82.50;;;;;;5023535;28;20071;-64
2020/12/31 04:30:49;;;;;;;15.20;9.02;;;8.30;82.60;;;;;;5035674;28;20029;-64
2020/12/31 04:33:18;;;;;;;13.80;9.38;;;8.30;82.40;;;;;;5021209;28;20061;-64
2020/12/31 04:35:44;;;;;;;14.23;9.27;;;8.30;82.30;;;;;;5024566;28;20040;-64
2020/12/31 04:38:10;;;;;;;15.43;9.93;;;8.20;81.40;;;;;;5021892;28;20037;-64
2020/12/31 04:40:41;;;;;;;16.40;10.40;;;8.00;80.00;;;;;;5036075;28;20473;-64
2020/12/31 04:43:08;;;;;;;14.48;10.25;;;7.80;80.10;;;;;;5036134;28;20022;-64
2020/12/31 04:45:34;;;;;;;14.93;11.23;;;7.50;80.60;;;;;;5035465;28;20083;-64
2020/12/31 04:48:30;;;;;;;14.00;9.93;;;7.40;81.30;;;;;;5035895;28;20029;-64
2020/12/31 04:51:01;;;;;;;16.55;10.98;;;7.20;81.80;;;;;;5022921;28;20517;-64
2020/12/31 04:53:27;;;;;;;16.40;10.88;;;7.20;82.40;;;;;;5021460;28;20026;-64
2020/12/31 04:55:53;;;;;;;16.25;11.35;;;7.20;83.20;;;;;;5036086;28;20040;-64
2020/12/31 04:58:18;;;;;;;16.50;10.60;;;7.20;83.00;;;;;;5023121;28;20101;-64
2020/12/31 05:00:46;;;;;;;16.67;11.75;;;7.20;83.20;;;;;;5022348;28;20374;-64
2020/12/31 05:03:12;;;;;;;18.42;12.15;;;7.10;83.50;;;;;;5029258;28;20022;-64
2020/12/31 05:05:38;;;;;;;17.88;10.93;;;7.20;83.60;;;;;;5026764;28;20021;-64
2020/12/31 05:08:05;;;;;;;18.02;10.85;;;7.20;83.60;;;;;;5032513;28;20088;-64
2020/12/31 05:10:32;;;;;;;16.40;9.85;;;7.20;83.80;;;;;;5032931;28;20067;-64
2020/12/31 05:13:04;;;;;;;17.95;11.02;;;7.20;84.10;;;;;;5015231;28;20053;-64
2020/12/31 05:15:42;;;;;;;14.65;9.65;;;7.30;84.10;;;;;;5023754;28;20079;-64
2020/12/31 05:18:22;;;;;;;15.32;10.02;;;7.30;84.10;;;;;;5020824;28;20061;-64
2020/12/31 05:20:56;;;;;;;15.85;10.85;;;7.40;84.30;;;;;;5035290;28;20473;-64
2020/12/31 05:23:24;;;;;;;19.05;11.10;;;7.40;84.70;;;;;;5034627;28;20022;-64
2020/12/31 05:25:51;;;;;;;17.58;10.63;;;7.50;84.70;;;;;;5035195;28;20041;-64
2020/12/31 05:28:31;;;;;;;16.42;10.05;;;7.60;84.80;;;;;;5034741;28;20045;-64
2020/12/31 05:31:15;;;;;;;18.33;10.52;;;7.70;84.80;;;;;;5034516;28;20034;-64
2020/12/31 05:33:42;;;;;;;14.05;8.82;;;7.80;84.80;;;;;;5023912;28;20039;-64
2020/12/31 05:36:26;;;;;;;13.90;9.20;;;7.80;84.70;;;;;;5035022;28;20025;-64
2020/12/31 05:39:00;;;;;;;12.15;8.82;;;7.90;84.50;;;;;;5033575;28;20440;-64
2020/12/31 05:41:31;;;;;;;14.57;9.13;;;7.90;84.40;;;;;;5029111;28;20070;-64
2020/12/31 05:43:59;;;;;;;13.02;8.75;;;7.90;84.40;;;;;;5034703;28;20063;-64
2020/12/31 05:46:26;;;;;;;15.32;9.05;;;8.00;84.10;;;;;;5034865;28;20033;-64
2020/12/31 05:48:59;;;;;;;14.27;9.82;;;8.00;84.20;;;;;;5034090;28;20030;-64
2020/12/31 05:51:27;;;;;;;14.10;9.52;;;8.10;84.10;;;;;;5034884;28;20108;-64
2020/12/31 05:53:53;;;;;;;15.23;9.93;;;8.10;84.10;;;;;;5034377;28;20105;-64
2020/12/31 05:56:21;;;;;;;14.75;10.23;;;8.10;84.40;;;;;;5034766;28;20449;-64
2020/12/31 05:58:50;;;;;;;16.52;11.05;;;8.10;84.20;;;;;;5034405;28;20025;-64
2020/12/31 06:01:17;;;;;;;16.50;10.85;;;8.20;84.30;;;;;;5030256;28;20140;-64
2020/12/31 06:03:52;;;;;;;13.90;9.68;;;8.20;84.00;;;;;;5024255;28;20482;-64
2020/12/31 06:06:20;;;;;;;14.57;9.73;;;8.20;83.90;;;;;;5033922;28;20021;-64
2020/12/31 06:08:57;;;;;;;14.23;9.57;;;8.20;83.90;;;;;;5034290;28;20075;-64
2020/12/31 06:11:35;;;;;;;14.93;9.88;;;8.30;83.90;;;;;;5026643;28;20026;-64
2020/12/31 06:14:03;;;;;;;15.15;10.52;;;8.30;83.90;;;;;;5034780;28;20358;-64
2020/12/31 06:16:36;;;;;;;13.30;9.35;;;8.30;83.60;;;;;;5034143;28;20539;-64
2020/12/31 06:19:11;;;;;;;16.90;10.43;;;8.30;83.50;;;;;;5033997;28;20028;-64
2020/12/31 06:21:43;;;;;;;17.45;9.63;;;8.40;84.20;;;;;;5033496;28;20024;-64
2020/12/31 06:24:12;;;;;;;15.63;9.98;;;8.40;83.60;;;;;;5034312;28;20060;-64
2020/12/31 06:26:40;;;;;;;15.77;10.93;;;8.40;83.80;;;;;;5032583;28;20055;-64
2020/12/31 06:29:07;;;;;;;15.13;9.80;;;8.40;83.80;;;;;;5024751;28;20064;-64
2020/12/31 06:31:33;;;;;;;14.93;10.15;;;8.50;83.90;;;;;;5031132;28;20143;-64
2020/12/31 06:33:59;;;;;;;15.40;10.00;;;8.50;83.60;;;;;;5022336;28;20486;-64
2020/12/31 06:36:34;;;;;;;14.68;9.70;;;8.60;83.60;;;;;;5032889;28;20346;-64
2020/12/31 06:38:59;;;;;;;13.20;9.32;;;8.60;83.50;;;;;;5021922;28;20033;-64
2020/12/31 06:41:31;;;;;;;14.30;10.00;;;8.60;83.30;;;;;;5034111;28;20035;-64
2020/12/31 06:44:06;;;;;;;;;;;8.70;83.10;;;;;;5020530;28;20056;-64
2020/12/31 06:46:42;;;;;;;13.20;8.82;;;8.60;82.80;;;;;;5033855;28;19912;-64
2020/12/31 06:49:11;;;;;;;14.35;9.43;;;8.60;83.20;;;;;;5020807;28;20029;-64
2020/12/31 06:51:37;;;;;;;17.35;11.13;;;8.70;83.40;;;;;;5033742;28;20025;-64
2020/12/31 06:54:03;;;;;;;18.67;11.48;;;8.70;83.20;;;;;;5032775;28;20397;-64
2020/12/31 06:56:48;;;;;;;17.42;11.05;;;8.80;83.10;;;;;;5033720;28;20032;-64
2020/12/31 06:59:30;;;;;;;14.50;10.65;;;8.80;83.00;;;;;;5033170;28;20139;-64
2020/12/31 07:02:01;;;;;;;17.42;11.52;;;8.90;82.90;;;;;;5014085;28;20450;-64
2020/12/31 07:04:34;;;;;;;16.33;10.70;;;8.90;82.80;;;;;;5028734;28;20365;-64
2020/12/31 07:07:01;;;;;;;16.13;10.55;;;8.90;82.60;;;;;;5017570;28;20366;-64
2020/12/31 07:09:31;;;;;;;18.05;9.88;;;9.00;82.60;;;;;;5027503;28;20029;-64
2020/12/31 07:12:04;;;;;;;19.48;10.55;;;9.00;82.40;;;;;;5026239;28;20390;-64
2020/12/31 07:14:32;;;;;;;16.55;10.35;;;9.00;82.30;;;;;;5027223;28;20412;-64
2020/12/31 07:17:07;;;;;;;16.17;10.85;;;9.10;82.50;;;;;;5033385;28;20017;-64
2020/12/31 07:19:38;;;;;;;18.52;12.65;;;9.10;82.40;;;;;;5033521;28;20099;-64
2020/12/31 07:22:16;;;;;;;18.85;11.48;;;9.10;82.60;;;;;;5019884;28;20112;-64
2020/12/31 07:24:51;;;;;;;16.77;10.73;;;9.20;82.60;;;;;;5018907;28;20029;-64
2020/12/31 07:27:23;;;;;;;15.43;9.70;;;9.30;82.50;;;;;;5020650;28;20132;-66
2020/12/31 07:30:07;;;;;;;15.68;10.50;;;9.30;82.40;;;;;;5033952;28;20029;-66
2020/12/31 07:32:51;;;;;;;18.13;11.18;;;9.30;82.10;;;;;;5033525;28;20500;-65
2020/12/31 07:35:39;;;;;;;16.15;11.02;;;9.40;81.90;;;;;;5029485;28;20021;-65
2020/12/31 07:38:06;;;;;;;15.15;10.18;;;9.40;81.80;;;;;;5033014;28;20042;-65
2020/12/31 07:40:42;;;;;;;14.95;10.48;;;9.40;81.60;;;;;;5019792;28;20051;-65
2020/12/31 07:43:10;;;;;;;15.18;10.30;;;9.40;81.40;;;;;;5033379;28;20036;-64
2020/12/31 07:45:36;;;;;;;15.05;11.50;;;9.40;81.40;;;;;;5031866;28;20470;-65
2020/12/31 07:48:02;;;;;;;15.80;10.73;;;9.40;81.50;;;;;;5032609;28;20025;-65
2020/12/31 07:50:29;;;;;;;16.08;9.55;;;9.40;81.50;;;;;;5028782;28;20533;-65
2020/12/31 07:52:55;;;;;;;15.23;11.07;;;9.40;81.20;;;;;;5026548;28;20076;-65
2020/12/31 07:55:21;;;;;;;14.40;10.02;;;9.40;81.10;;;;;;5032708;28;20100;-64
2020/12/31 07:57:48;;;;;;;15.40;10.93;;;9.40;81.20;;;;;;5031950;28;20464;-65
2020/12/31 08:00:19;;;;;;;14.43;9.90;;;9.40;81.20;;;;;;5017500;28;20029;-64
2020/12/31 08:02:50;;;;;;;17.52;12.15;;;9.40;81.30;;;;;;5013556;28;20030;-64
2020/12/31 08:05:17;;;;;;;16.87;10.97;;;9.50;81.00;;;;;;5019381;28;20485;-65
2020/12/31 08:07:44;;;;;;;14.82;10.70;;;9.40;80.40;;;;;;5028924;28;20036;-65
2020/12/31 08:10:11;;;;;;;17.05;11.25;;;9.40;80.30;;;;;;5033161;28;20051;-65
2020/12/31 08:12:39;;;;;;;16.00;10.90;;;9.30;80.10;;;;;;5028464;28;20069;-64
2020/12/31 08:15:05;;;;;;;15.95;11.40;;;9.20;80.30;;;;;;5032824;28;20104;-65
2020/12/31 08:17:31;;;;;;;17.83;10.77;;;9.10;80.20;;;;;;5033112;28;20037;-64
2020/12/31 08:19:57;;;;;;;17.08;10.90;;;9.10;80.20;;;;;;5027549;28;20079;-64
2020/12/31 08:22:35;;;;;;;22.00;12.48;;;9.00;80.30;;;;;;5025652;28;20489;-64
2020/12/31 08:25:14;;;;;;;16.75;11.02;;;9.00;80.50;;;;;;5032811;28;20474;-65
2020/12/31 08:27:41;;;;;;;18.02;11.90;;;9.00;81.70;;;;;;5031831;28;20037;-64
2020/12/31 08:30:09;;;;;;;16.35;10.45;;;9.00;81.50;;;;;;5032660;28;20028;-64
2020/12/31 08:32:51;;;;;;;16.25;10.52;;;9.00;81.50;;;;;;5033033;28;20026;-64
2020/12/31 08:35:21;;;;;;;;;;;9.10;81.40;;;;;;5033377;28;20477;-64
2020/12/31 08:37:58;;;;;;;12.80;9.52;;;9.10;81.30;;;;;;5025030;28;19940;-64
2020/12/31 08:40:24;;;;;;;16.10;10.93;;;9.10;81.50;;;;;;5032081;28;20398;-64
2020/12/31 08:42:54;;;;;;;18.77;12.18;;;9.10;81.90;;;;;;5030598;28;20026;-64
2020/12/31 08:45:27;;;;;;;17.73;11.65;;;9.10;81.50;;;;;;5025794;28;20022;-64
2020/12/31 08:48:10;;;;;;;17.70;12.43;;;9.20;82.00;;;;;;5035946;28;20120;-64
2020/12/31 08:50:36;;;;;;;20.05;12.13;;;9.30;82.20;;;;;;5030545;28;20018;-64
2020/12/31 08:53:02;;;;;;;17.23;11.23;;;9.40;82.60;;;;;;5029598;28;20029;-64
2020/12/31 08:55:28;;;;;;;16.05;11.20;;;9.50;82.50;;;;;;5022664;28;20024;-64
2020/12/31 08:58:16;;;;;;;17.75;10.57;;;9.50;82.20;;;;;;5033474;28;20029;-64
2020/12/31 09:00:43;;;;;;;16.83;11.50;;;9.60;81.90;;;;;;5028186;28;20111;-64
2020/12/31 09:03:09;;;;;;;16.60;10.77;;;9.70;81.80;;;;;;5030455;28;20028;-65
2020/12/31 09:05:35;;;;;;;16.40;10.93;;;9.70;81.50;;;;;;5026567;28;20389;-64
2020/12/31 09:08:08;;;;;;;18.58;12.02;;;9.70;82.10;;;;;;5035402;28;20030;-64
2020/12/31 09:10:37;;;;;;;19.15;11.48;;;9.70;81.40;;;;;;5032494;28;20029;-64
2020/12/31 09:13:05;;;;;;;16.00;11.57;;;9.80;81.30;;;;;;5038052;28;20021;-64
2020/12/31 09:15:31;;;;;;;17.50;11.15;;;9.80;81.20;;;;;;5028937;28;20381;-64
2020/12/31 09:17:58;;;;;;;17.77;12.18;;;9.90;81.40;;;;;;5033613;28;20029;-64
2020/12/31 09:20:29;;;;;;;20.15;11.50;;;9.90;81.30;;;;;;5035291;28;20037;-65
2020/12/31 09:23:08;;;;;;;15.70;11.90;;;9.90;81.30;;;;;;5036469;28;20151;-63
2020/12/31 09:25:34;;;;;;;16.20;11.50;;;10.00;81.10;;;;;;5038963;28;20054;-65
2020/12/31 09:27:59;;;;;;;19.23;12.70;;;10.00;80.90;;;;;;5028730;28;20072;-63
2020/12/31 09:30:30;;;;;;;22.90;11.80;;;10.00;81.00;;;;;;5031934;28;20026;-63
2020/12/31 09:32:56;;;;;;;20.33;12.52;;;10.10;81.00;;;;;;5025972;28;20527;-63
2020/12/31 09:35:23;;;;;;;18.77;12.77;;;10.10;80.90;;;;;;5030271;28;20144;-63
2020/12/31 09:37:51;;;;;;;21.23;13.38;;;10.20;80.90;;;;;;5030270;28;20025;-63
2020/12/31 09:40:17;;;;;;;16.15;11.45;;;10.20;81.00;;;;;;5031327;28;20059;-63
2020/12/31 09:42:43;;;;;;;16.67;11.25;;;10.30;81.10;;;;;;5032197;28;20085;-64
2020/12/31 09:45:09;;;;;;;19.98;12.23;;;10.30;80.80;;;;;;5026519;28;22422;-63
2020/12/31 09:47:35;;;;;;;18.55;13.20;;;10.30;80.20;;;;;;5027769;28;20026;-64
2020/12/31 09:50:01;;;;;;;23.20;13.65;;;10.30;80.00;;;;;;5033412;28;20462;-64
2020/12/31 09:52:27;;;;;;;20.50;12.38;;;10.30;80.00;;;;;;5025899;28;20030;-64
2020/12/31 09:54:52;;;;;;;15.73;10.57;;;10.30;80.10;;;;;;5037541;28;20373;-64
2020/12/31 09:57:18;;;;;;;18.20;12.05;;;10.30;80.20;;;;;;5028964;28;20030;-63
2020/12/31 09:59:44;;;;;;;18.30;12.00;;;10.30;80.30;;;;;;5036227;28;20075;-63
2020/12/31 10:02:10;;;;;;;15.40;11.35;;;10.30;80.40;;;;;;5032762;28;20029;-64
2020/12/31 10:04:36;;;;;;;18.27;11.73;;;10.40;80.60;;;;;;5035772;28;20037;-63
2020/12/31 10:07:01;;;;;;;18.58;12.10;;;10.40;80.50;;;;;;5034509;28;20028;-64
2020/12/31 10:09:27;;;;;;;17.10;11.93;;;10.40;80.30;;;;;;5023406;28;20047;-64
2020/12/31 10:11:54;;;;;;;17.30;12.18;;;10.50;80.10;;;;;;5030152;28;20034;-63
2020/12/31 10:14:20;;;;;;;19.92;12.80;;;10.40;79.90;;;;;;5034098;28;20036;-63
2020/12/31 10:16:46;;;;;;;19.90;12.38;;;10.40;79.90;;;;;;5032040;28;20041;-64
2020/12/31 10:19:12;;;;;;;18.23;12.27;;;10.40;79.70;;;;;;5033752;28;20038;-63
2020/12/31 10:21:38;;;;;;;15.52;11.27;;;10.40;80.50;;;;;;5030270;28;20096;-64
2020/12/31 10:24:04;;;;;;;16.63;11.57;;;10.40;79.80;;;;;;5032992;28;21364;-64
2020/12/31 10:26:30;;;;;;;19.02;11.45;;;10.40;80.00;;;;;;5028729;28;20026;-63
2020/12/31 10:28:56;;;;;;;18.42;11.65;;;10.40;79.90;;;;;;5025084;28;20485;-63
2020/12/31 10:31:21;;;;;;;18.75;12.50;;;10.30;79.80;;;;;;5029722;28;20033;-63
2020/12/31 10:33:47;;;;;;;20.60;12.88;;;10.40;80.20;;;;;;5029875;28;20032;-63
2020/12/31 10:36:13;;;;;;;18.92;12.38;;;10.30;79.90;;;;;;5032306;28;20163;-63
2020/12/31 10:38:40;;;;;;;21.65;13.45;;;10.30;80.10;;;;;;5026133;28;20040;-63
2020/12/31 10:41:07;;;;;;;20.65;13.23;;;10.30;80.00;;;;;;5025487;28;20026;-63
2020/12/31 10:43:33;;;;;;;17.20;11.50;;;10.30;80.10;;;;;;5034237;28;20041;-63
2020/12/31 10:45:58;;;;;;;17.73;11.85;;;10.20;80.00;;;;;;5026818;28;20037;-63
2020/12/31 10:48:25;;;;;;;23.02;13.45;;;10.20;79.90;;;;;;5027709;28;20033;-63
2020/12/31 10:50:50;;;;;;;19.55;12.80;;;10.10;78.80;;;;;;5031138;28;20072;-63
2020/12/31 10:53:16;;;;;;;19.73;13.00;;;10.00;78.40;;;;;;5033870;28;20693;-63
2020/12/31 10:55:42;;;;;;;19.95;12.93;;;9.80;78.20;;;;;;5025622;28;20025;-63
2020/12/31 10:58:08;;;;;;;18.65;12.95;;;9.70;79.40;;;;;;5029431;28;20596;-65
2020/12/31 11:00:33;;;;;;;24.67;13.50;;;9.70;80.40;;;;;;5030291;28;20030;-63
2020/12/31 11:02:59;;;;;;;23.48;13.90;;;9.60;80.70;;;;;;5029558;28;20052;-65
2020/12/31 11:05:25;;;;;;;24.35;14.23;;;9.70;80.90;;;;;;5042297;28;20059;-63
2020/12/31 11:07:50;;;;;;;21.92;15.25;;;9.70;80.70;;;;;;5035918;28;20029;-63
2020/12/31 11:10:16;;;;;;;24.58;14.57;;;9.70;80.10;;;;;;5025546;28;20484;-63
2020/12/31 11:12:42;;;;;;;21.50;13.85;;;9.70;79.70;;;;;;5032108;28;20394;-63
2020/12/31 11:15:08;;;;;;;20.92;13.52;;;9.60;79.00;;;;;;5026599;28;20033;-65
2020/12/31 11:17:34;;;;;;;17.13;12.80;;;9.50;78.60;;;;;;5027872;28;20029;-65
2020/12/31 11:19:59;;;;;;;19.70;11.43;;;9.40;78.40;;;;;;5031161;28;20089;-65
2020/12/31 11:22:25;;;;;;;17.23;12.52;;;9.30;78.30;;;;;;5031414;28;20037;-65
2020/12/31 11:24:51;;;;;;;17.50;12.55;;;9.10;77.90;;;;;;5031991;28;20037;-63
2020/12/31 11:27:16;;;;;;;15.77;12.00;;;8.90;77.50;;;;;;5031374;28;20136;-65
2020/12/31 11:29:42;;;;;;;19.80;12.40;;;8.70;77.60;;;;;;5031329;28;20029;-65
2020/12/31 11:32:08;;;;;;;18.13;12.23;;;8.50;77.20;;;;;;5033258;28;20041;-65
2020/12/31 11:34:33;;;;;;;17.58;12.40;;;8.20;77.10;;;;;;5029687;28;20040;-63
2020/12/31 11:37:02;;;;;;;17.23;12.95;;;8.00;77.70;;;;;;5022595;28;20416;-63
2020/12/31 11:39:28;;;;;;;16.40;12.15;;;7.80;77.90;;;;;;5031377;28;20416;-65
2020/12/31 11:42:00;;;;;;;19.75;13.20;;;7.70;78.20;;;;;;5031586;28;20034;-65
2020/12/31 11:44:26;;;;;;;18.08;12.82;;;7.50;78.60;;;;;;5035033;28;20037;-65
2020/12/31 11:46:52;;;;;;;17.40;12.63;;;7.40;79.30;;;;;;5032256;28;20021;-65
2020/12/31 11:49:18;;;;;;;16.70;12.13;;;7.40;79.80;;;;;;5027537;28;20076;-65
2020/12/31 11:51:44;;;;;;;18.25;12.00;;;7.30;79.50;;;;;;5033016;28;20034;-65
2020/12/31 11:54:10;;;;;;;18.33;13.18;;;7.20;80.20;;;;;;5026153;28;20048;-65
2020/12/31 11:56:39;;;;;;;18.45;11.00;;;7.20;80.70;;;;;;5032048;28;20026;-65
2020/12/31 11:59:05;;;;;;;17.60;11.93;;;7.20;80.60;;;;;;5032042;28;20112;-65
2020/12/31 12:01:31;;;;;;;19.95;13.15;;;7.20;80.60;;;;;;5033202;28;20084;-66
2020/12/31 12:03:57;;;;;;;20.92;12.75;;;7.20;80.80;;;;;;5033388;28;20033;-65
2020/12/31 12:06:22;;;;;;;14.82;11.70;;;7.20;80.40;;;;;;5028610;28;20453;-65
2020/12/31 12:08:48;;;;;;;18.15;12.13;;;7.20;80.40;;;;;;5016025;28;20034;-65
2020/12/31 12:11:14;;;;;;;17.92;12.23;;;7.10;80.70;;;;;;5031282;28;20104;-63
2020/12/31 12:13:39;;;;;;;18.52;12.20;;;7.20;81.10;;;;;;5034521;28;20026;-63
2020/12/31 12:16:06;;;;;;;16.85;12.55;;;7.20;81.20;;;;;;5031192;28;20101;-63
2020/12/31 12:18:32;;;;;;;20.83;13.25;;;7.20;81.60;;;;;;5031290;28;20025;-63
2020/12/31 12:20:58;;;;;;;17.70;11.43;;;7.20;81.50;;;;;;5030984;28;20377;-63
2020/12/31 12:23:23;;;;;;;18.73;12.85;;;7.30;81.50;;;;;;5028509;28;20034;-65
2020/12/31 12:25:50;;;;;;;23.08;14.23;;;7.30;81.40;;;;;;5033735;28;20064;-63
2020/12/31 12:28:16;;;;;;;19.80;12.40;;;7.30;81.40;;;;;;5027777;28;20524;-63
2020/12/31 12:30:42;;;;;;;23.48;13.35;;;7.40;81.40;;;;;;5029950;28;20025;-63
2020/12/31 12:33:08;;;;;;;19.25;12.82;;;7.40;81.20;;;;;;5033357;28;20021;-63
2020/12/31 12:35:34;;;;;;;21.02;13.00;;;7.40;81.30;;;;;;5032661;28;20022;-63
2020/12/31 12:38:00;;;;;;;18.77;13.60;;;7.50;81.70;;;;;;5029547;28;20042;-63
2020/12/31 12:40:26;;;;;;;20.20;14.05;;;7.60;81.70;;;;;;5035228;28;20051;-65
2020/12/31 12:42:52;;;;;;;17.77;12.25;;;7.70;81.50;;;;;;5035719;28;20373;-65